createdAt,value
2022-11-10T00:01:04.081Z,10.53
2022-11-10T00:03:51.058Z,13.37
2022-11-10T00:06:38.013Z,11.87
2022-11-10T00:09:24.943Z,15.57
2022-11-10T00:12:11.784Z,14.27
2022-11-10T00:15:16.947Z,10.40
2022-11-10T00:18:04.058Z,9.83
2022-11-10T00:20:50.910Z,9.30
2022-11-10T00:23:38.400Z,12.77
2022-11-10T00:26:25.162Z,12.00
2022-11-10T00:29:11.972Z,13.37
2022-11-10T00:31:58.797Z,9.80
2022-11-10T00:34:45.699Z,11.10
2022-11-10T00:37:32.551Z,12.17
2022-11-10T00:40:19.459Z,9.27
2022-11-10T00:43:06.265Z,12.10
2022-11-10T00:45:53.137Z,16.20
2022-11-10T00:48:39.963Z,15.50
2022-11-10T00:51:27.882Z,10.47
2022-11-10T00:54:14.725Z,14.00
2022-11-10T00:57:01.531Z,13.83
2022-11-10T00:59:48.299Z,10.23
2022-11-10T01:02:35.114Z,11.30
2022-11-10T01:05:21.946Z,13.73
2022-11-10T01:08:09.103Z,15.90
2022-11-10T01:11:05.548Z,13.10
2022-11-10T01:13:52.943Z,14.03
2022-11-10T01:16:39.777Z,16.77
2022-11-10T01:19:26.679Z,16.70
2022-11-10T01:22:13.450Z,13.97
2022-11-10T01:25:00.366Z,16.17
2022-11-10T01:27:47.279Z,16.70
2022-11-10T01:30:34.147Z,14.33
2022-11-10T01:33:21.189Z,16.67
2022-11-10T01:36:09.054Z,13.93
2022-11-10T01:38:55.923Z,14.70
2022-11-10T01:41:42.766Z,10.70
2022-11-10T01:44:29.587Z,15.60
2022-11-10T01:47:16.419Z,14.73
2022-11-10T01:50:03.403Z,15.53
2022-11-10T01:52:51.863Z,15.03
2022-11-10T01:55:41.730Z,14.63
2022-11-10T01:58:32.810Z,17.50
2022-11-10T02:01:19.814Z,22.23
2022-11-10T02:04:08.063Z,20.27
2022-11-10T02:06:55.066Z,18.00
2022-11-10T02:09:41.939Z,25.53
2022-11-10T02:12:38.873Z,19.87
2022-11-10T02:15:25.857Z,18.13
2022-11-10T02:18:12.727Z,19.47
2022-11-10T02:20:59.551Z,20.53
2022-11-10T02:23:49.464Z,22.80
2022-11-10T02:26:40.011Z,18.23
2022-11-10T02:29:26.821Z,18.60
2022-11-10T02:32:13.742Z,23.20
2022-11-10T02:35:00.636Z,20.13
2022-11-10T02:37:47.499Z,21.17
2022-11-10T02:40:34.359Z,20.83
2022-11-10T02:43:21.595Z,21.67
2022-11-10T02:46:08.751Z,21.63
2022-11-10T02:48:55.586Z,19.27
2022-11-10T02:51:42.362Z,17.90
2022-11-10T02:54:29.205Z,24.20
2022-11-10T02:57:15.985Z,25.53
2022-11-10T03:00:03.324Z,20.17
2022-11-10T03:02:55.750Z,22.07
2022-11-10T03:05:42.674Z,20.97
2022-11-10T03:08:29.449Z,27.73
2022-11-10T03:11:16.302Z,22.37
2022-11-10T03:14:03.810Z,29.23
2022-11-10T03:16:50.690Z,24.00
2022-11-10T03:19:37.481Z,23.03
2022-11-10T03:22:24.370Z,23.73
2022-11-10T03:25:11.529Z,26.83
2022-11-10T03:27:58.442Z,32.60
2022-11-10T03:30:45.293Z,20.80
2022-11-10T03:33:32.343Z,23.40
2022-11-10T03:36:19.177Z,26.60
2022-11-10T03:39:06.039Z,23.87
2022-11-10T03:41:53.764Z,31.33
2022-11-10T03:44:40.590Z,31.47
2022-11-10T03:47:27.606Z,31.40
2022-11-10T03:50:15.561Z,30.07
2022-11-10T03:53:02.588Z,25.73
2022-11-10T03:55:49.404Z,30.20
2022-11-10T03:58:36.949Z,32.47
2022-11-10T04:01:24.071Z,29.37
2022-11-10T04:04:31.170Z,34.97
2022-11-10T04:07:36.326Z,32.50
2022-11-10T04:10:23.866Z,36.10
2022-11-10T04:13:29.522Z,34.17
2022-11-10T04:16:16.371Z,29.00
2022-11-10T04:19:04.113Z,31.73
2022-11-10T04:21:51.127Z,34.23
2022-11-10T04:24:37.954Z,36.07
2022-11-10T04:27:24.975Z,36.40
2022-11-10T04:30:11.995Z,33.57
2022-11-10T04:32:58.899Z,36.23
2022-11-10T04:35:45.702Z,34.10
2022-11-10T04:38:32.563Z,36.57
2022-11-10T04:41:19.431Z,31.43
2022-11-10T04:44:06.368Z,37.17
2022-11-10T04:46:53.122Z,34.93
2022-11-10T04:49:39.901Z,33.97
2022-11-10T04:52:26.718Z,37.20
2022-11-10T04:55:13.643Z,34.03
2022-11-10T04:58:00.505Z,34.23
2022-11-10T05:00:47.451Z,40.50
2022-11-10T05:03:34.271Z,38.67
2022-11-10T05:06:21.441Z,42.80
2022-11-10T05:09:08.353Z,37.70
2022-11-10T05:11:55.160Z,42.53
2022-11-10T05:14:42.020Z,39.37
2022-11-10T05:17:28.815Z,44.13
2022-11-10T05:20:16.303Z,43.90
2022-11-10T05:23:21.741Z,39.37
2022-11-10T05:26:08.714Z,40.20
2022-11-10T05:28:55.610Z,45.20
2022-11-10T05:31:42.490Z,42.33
2022-11-10T05:34:29.345Z,39.27
2022-11-10T05:37:16.224Z,42.93
2022-11-10T05:40:03.086Z,42.17
2022-11-10T05:42:53.058Z,36.73
2022-11-10T05:45:39.867Z,41.13
2022-11-10T05:48:26.738Z,39.87
2022-11-10T05:51:13.649Z,41.97
2022-11-10T05:54:00.561Z,42.10
2022-11-10T05:56:47.463Z,47.43
2022-11-10T05:59:34.396Z,38.03
2022-11-10T06:02:21.221Z,51.37
2022-11-10T06:05:08.525Z,45.40
2022-11-10T06:07:55.584Z,37.90
2022-11-10T06:10:42.450Z,48.93
2022-11-10T06:13:29.437Z,39.00
2022-11-10T06:16:16.245Z,46.93
2022-11-10T06:19:03.087Z,44.83
2022-11-10T06:21:51.254Z,38.20
2022-11-10T06:24:39.685Z,37.00
2022-11-10T06:27:26.540Z,44.63
2022-11-10T06:30:13.852Z,43.07
2022-11-10T06:33:00.981Z,45.97
2022-11-10T06:35:47.859Z,40.90
2022-11-10T06:38:34.690Z,38.33
2022-11-10T06:41:25.272Z,40.30
2022-11-10T06:44:12.387Z,41.83
2022-11-10T06:46:59.218Z,40.57
2022-11-10T06:49:46.114Z,42.13
2022-11-10T06:52:33.116Z,42.90
2022-11-10T06:55:19.930Z,46.27
2022-11-10T06:58:06.738Z,43.20
2022-11-10T07:00:53.565Z,45.33
2022-11-10T07:03:58.493Z,42.17
2022-11-10T07:06:50.469Z,48.03
2022-11-10T07:09:37.944Z,40.73
2022-11-10T07:12:24.805Z,36.73
2022-11-10T07:15:11.599Z,40.70
2022-11-10T07:17:58.468Z,35.20
2022-11-10T07:20:46.367Z,40.20
2022-11-10T07:23:34.962Z,36.80
2022-11-10T07:26:22.070Z,36.90
2022-11-10T07:29:09.028Z,39.27
2022-11-10T07:31:56.143Z,42.17
2022-11-10T07:34:43.286Z,35.33
2022-11-10T07:37:30.150Z,35.60
2022-11-10T07:40:17.034Z,35.87
2022-11-10T07:43:04.236Z,37.70
2022-11-10T07:45:51.550Z,32.17
2022-11-10T07:48:38.524Z,32.90
2022-11-10T07:51:27.079Z,34.37
2022-11-10T07:54:13.939Z,30.67
2022-11-10T07:57:01.225Z,31.23
2022-11-10T07:59:48.071Z,28.97
2022-11-10T08:02:34.882Z,29.60
2022-11-10T08:05:21.742Z,30.53
2022-11-10T08:08:08.938Z,28.20
2022-11-10T08:10:57.297Z,30.03
2022-11-10T08:13:44.067Z,29.83
2022-11-10T08:16:30.920Z,32.23
2022-11-10T08:19:17.775Z,33.30
2022-11-10T08:22:04.653Z,27.53
2022-11-10T08:24:51.415Z,28.33
2022-11-10T08:27:38.263Z,37.27
2022-11-10T08:30:25.257Z,39.97
2022-11-10T08:33:13.187Z,38.23
2022-11-10T08:36:01.279Z,30.20
2022-11-10T08:38:48.491Z,32.53
2022-11-10T08:41:35.329Z,41.87
2022-11-10T08:44:22.114Z,41.27
2022-11-10T08:47:08.904Z,27.67
2022-11-10T08:49:55.860Z,27.33
2022-11-10T08:52:42.734Z,32.60
2022-11-10T08:55:30.662Z,29.30
2022-11-10T08:58:18.711Z,29.80
2022-11-10T09:01:09.482Z,33.77
2022-11-10T09:03:56.381Z,34.23
2022-11-10T09:06:43.397Z,36.83
2022-11-10T09:09:30.911Z,30.80
2022-11-10T09:12:17.848Z,36.60
2022-11-10T09:15:05.017Z,25.70
2022-11-10T09:17:51.980Z,27.97
2022-11-10T09:20:39.078Z,29.33
2022-11-10T09:23:26.498Z,26.07
2022-11-10T09:26:13.415Z,28.83
2022-11-10T09:29:00.287Z,22.47
2022-11-10T09:31:47.308Z,26.97
2022-11-10T09:34:34.162Z,24.30
2022-11-10T09:37:22.123Z,22.80
2022-11-10T09:40:15.162Z,26.93
2022-11-10T09:43:03.089Z,27.37
2022-11-10T09:45:51.604Z,25.00
2022-11-10T09:48:42.670Z,24.83
2022-11-10T09:51:32.512Z,22.37
2022-11-10T09:54:39.142Z,24.40
2022-11-10T09:57:27.105Z,25.73
2022-11-10T10:00:17.637Z,19.90
2022-11-10T10:03:05.497Z,25.87
2022-11-10T10:06:12.393Z,16.77
2022-11-10T10:09:03.995Z,18.27
2022-11-10T10:12:07.056Z,19.63
2022-11-10T10:15:03.135Z,23.97
2022-11-10T10:17:53.005Z,22.37
2022-11-10T10:20:39.839Z,22.13
2022-11-10T10:23:53.970Z,16.77
2022-11-10T10:26:38.976Z,20.40
2022-11-10T10:29:33.109Z,20.30
2022-11-10T10:32:24.011Z,18.60
2022-11-10T10:35:17.651Z,17.63
2022-11-10T10:38:05.637Z,15.93
2022-11-10T10:40:53.155Z,15.17
2022-11-10T10:43:46.435Z,13.90
2022-11-10T10:46:42.907Z,18.47
2022-11-10T10:49:31.383Z,16.53
2022-11-10T10:52:24.903Z,15.57
2022-11-10T10:55:13.618Z,14.50
2022-11-10T10:58:02.219Z,14.93
2022-11-10T11:00:51.825Z,16.80
2022-11-10T11:03:43.506Z,13.63
2022-11-10T11:06:31.849Z,9.73
2022-11-10T11:09:20.137Z,14.47
2022-11-10T11:12:08.587Z,17.50
2022-11-10T11:15:14.438Z,16.67
2022-11-10T11:18:05.208Z,11.67
2022-11-10T11:20:51.993Z,14.87
2022-11-10T11:23:47.899Z,11.77
2022-11-10T11:26:37.694Z,8.87
2022-11-10T11:30:03.555Z,19.00
2022-11-10T11:33:08.754Z,14.33
2022-11-10T11:36:01.287Z,11.27
2022-11-10T11:38:48.065Z,12.10
2022-11-10T11:41:46.928Z,10.30
2022-11-10T11:44:42.643Z,13.43
2022-11-10T11:47:37.548Z,11.73
2022-11-10T11:50:37.039Z,16.43
2022-11-10T11:53:29.870Z,12.83
2022-11-10T11:56:22.862Z,11.73
2022-11-10T11:59:28.256Z,13.53
2022-11-10T12:02:37.549Z,15.87
2022-11-10T12:05:44.081Z,13.77
2022-11-10T12:08:33.913Z,10.97
2022-11-10T12:11:26.586Z,10.63
2022-11-10T12:14:33.205Z,16.03
2022-11-10T12:17:24.800Z,14.47
2022-11-10T12:20:35.267Z,14.00
2022-11-10T12:23:22.791Z,12.40
2022-11-10T12:26:12.712Z,12.43
2022-11-10T12:29:19.724Z,12.47
2022-11-10T12:32:10.181Z,15.00
2022-11-10T12:35:32.431Z,11.93
2022-11-10T12:38:19.653Z,9.90
2022-11-10T12:41:12.596Z,9.90
2022-11-10T12:43:59.347Z,15.83
2022-11-10T12:46:51.802Z,13.47
2022-11-10T12:49:48.248Z,12.90
2022-11-10T12:52:41.757Z,14.63
2022-11-10T12:55:33.726Z,12.17
2022-11-10T12:58:20.870Z,9.63
2022-11-10T13:01:13.930Z,12.57
2022-11-10T13:04:01.055Z,13.67
2022-11-10T13:06:53.068Z,9.07
2022-11-10T13:09:43.896Z,11.43
2022-11-10T13:12:30.743Z,10.87
2022-11-10T13:15:35.645Z,10.73
2022-11-10T13:18:24.385Z,9.60
2022-11-10T13:21:11.437Z,12.20
2022-11-10T13:24:18.508Z,10.73
2022-11-10T13:27:12.506Z,11.50
2022-11-10T13:30:00.032Z,15.30
2022-11-10T13:32:46.945Z,14.73
2022-11-10T13:35:40.083Z,10.83
2022-11-10T13:38:33.078Z,6.33
2022-11-10T13:41:21.430Z,12.70
2022-11-10T13:44:20.559Z,9.47
2022-11-10T13:47:07.415Z,14.50
2022-11-10T13:49:57.531Z,12.63
2022-11-10T13:52:56.959Z,11.00
2022-11-10T13:56:03.155Z,10.73
2022-11-10T13:58:50.061Z,10.47
2022-11-10T14:01:36.866Z,12.57
2022-11-10T14:04:39.604Z,11.37
2022-11-10T14:07:29.079Z,11.03
2022-11-10T14:10:17.583Z,9.63
2022-11-10T14:13:12.299Z,9.50
2022-11-10T14:15:59.478Z,12.30
2022-11-10T14:18:58.490Z,9.10
2022-11-10T14:21:58.303Z,13.17
2022-11-10T14:24:54.240Z,11.00
2022-11-10T14:27:41.167Z,9.87
2022-11-10T14:30:28.979Z,11.43
2022-11-10T14:33:15.875Z,10.00
2022-11-10T14:36:04.262Z,13.53
2022-11-10T14:38:52.520Z,12.43
2022-11-10T14:41:45.824Z,10.37
2022-11-10T14:44:34.087Z,6.67
2022-11-10T14:47:26.536Z,8.97
2022-11-10T14:50:13.404Z,11.53
2022-11-10T14:53:07.336Z,9.60
2022-11-10T14:55:55.111Z,13.37
2022-11-10T14:58:43.146Z,10.47
2022-11-10T15:01:41.247Z,10.03
2022-11-10T15:04:32.552Z,10.50
2022-11-10T15:07:19.592Z,9.07
2022-11-10T15:10:18.941Z,8.97
2022-11-10T15:13:17.666Z,9.50
2022-11-10T15:16:23.025Z,10.83
2022-11-10T15:19:20.101Z,8.87
2022-11-10T15:22:12.267Z,14.17
2022-11-10T15:25:08.646Z,12.50
2022-11-10T15:28:06.495Z,11.90
2022-11-10T15:30:56.412Z,8.47
2022-11-10T15:33:48.070Z,14.00
2022-11-10T15:36:36.218Z,7.83
2022-11-10T15:39:25.196Z,11.23
2022-11-10T15:42:21.291Z,10.00
2022-11-10T15:45:08.298Z,13.03
2022-11-10T15:47:55.562Z,11.90
2022-11-10T15:50:43.509Z,11.00
2022-11-10T15:53:33.518Z,12.97
2022-11-10T15:56:21.792Z,10.50
2022-11-10T15:59:09.882Z,12.10
2022-11-10T16:01:56.814Z,12.33
2022-11-10T16:04:43.678Z,12.13
2022-11-10T16:07:30.558Z,9.57
2022-11-10T16:10:17.474Z,10.17
2022-11-10T16:13:04.411Z,10.47
2022-11-10T16:15:51.425Z,11.77
2022-11-10T16:18:43.515Z,12.33
2022-11-10T16:21:30.682Z,11.30
2022-11-10T16:24:18.079Z,10.90
2022-11-10T16:27:06.351Z,11.23
2022-11-10T16:29:53.200Z,11.87
2022-11-10T16:32:40.014Z,13.10
2022-11-10T16:35:27.328Z,9.87
2022-11-10T16:38:20.424Z,11.60
2022-11-10T16:41:11.435Z,14.67
2022-11-10T16:43:58.231Z,11.47
2022-11-10T16:46:47.755Z,10.53
2022-11-10T16:49:35.609Z,9.67
2022-11-10T16:52:22.794Z,9.63
2022-11-10T16:55:12.547Z,9.17
2022-11-10T16:57:59.405Z,11.53
2022-11-10T17:00:47.051Z,12.43
2022-11-10T17:03:38.843Z,9.17
2022-11-10T17:06:27.023Z,10.00
2022-11-10T17:09:17.305Z,12.83
2022-11-10T17:12:04.298Z,11.10
2022-11-10T17:14:51.150Z,8.83
2022-11-10T17:17:38.303Z,11.17
2022-11-10T17:20:27.964Z,11.53
2022-11-10T17:23:16.192Z,13.93
2022-11-10T17:26:03.069Z,12.20
2022-11-10T17:28:49.925Z,12.80
2022-11-10T17:31:36.819Z,14.03
2022-11-10T17:34:23.780Z,11.47
2022-11-10T17:37:12.092Z,8.33
2022-11-10T17:39:59.251Z,12.33
2022-11-10T17:42:46.420Z,7.43
2022-11-10T17:45:33.684Z,15.67
2022-11-10T17:48:21.368Z,9.03
2022-11-10T17:51:18.750Z,12.10
2022-11-10T17:54:06.015Z,15.50
2022-11-10T17:56:52.847Z,14.13
2022-11-10T17:59:39.791Z,11.87
2022-11-10T18:02:26.653Z,9.33
2022-11-10T18:05:15.032Z,7.07
2022-11-10T18:08:03.849Z,10.83
2022-11-10T18:10:51.932Z,10.43
2022-11-10T18:13:40.237Z,10.27
2022-11-10T18:16:27.302Z,10.30
2022-11-10T18:19:14.275Z,10.53
2022-11-10T18:22:01.184Z,10.80
2022-11-10T18:24:48.270Z,11.40
2022-11-10T18:27:35.665Z,11.00
2022-11-10T18:30:22.778Z,9.00
2022-11-10T18:33:11.097Z,10.73
2022-11-10T18:36:01.084Z,9.63
2022-11-10T18:38:48.108Z,10.87
2022-11-10T18:41:50.372Z,12.20
2022-11-10T18:44:37.692Z,8.97
2022-11-10T18:47:24.746Z,6.53
2022-11-10T18:50:11.772Z,10.13
2022-11-10T18:52:58.661Z,8.07
2022-11-10T18:55:53.074Z,8.73
2022-11-10T18:58:40.269Z,13.50
2022-11-10T19:01:30.344Z,7.23
2022-11-10T19:04:17.232Z,11.60
2022-11-10T19:07:04.244Z,7.67
2022-11-10T19:09:51.046Z,7.07
2022-11-10T19:12:37.995Z,8.73
2022-11-10T19:15:24.818Z,8.70
2022-11-10T19:18:11.745Z,11.13
2022-11-10T19:20:58.624Z,8.57
2022-11-10T19:23:45.827Z,13.27
2022-11-10T19:26:32.992Z,11.20
2022-11-10T19:29:19.879Z,7.63
2022-11-10T19:32:06.929Z,6.23
2022-11-10T19:34:53.938Z,10.80
2022-11-10T19:37:40.809Z,10.87
2022-11-10T19:40:27.703Z,12.63
2022-11-10T19:43:14.509Z,8.73
2022-11-10T19:46:04.443Z,7.40
2022-11-10T19:48:51.356Z,7.30
2022-11-10T19:51:38.477Z,10.10
2022-11-10T19:54:25.285Z,10.50
2022-11-10T19:57:12.060Z,11.93
2022-11-10T19:59:58.962Z,9.53
2022-11-10T20:02:46.004Z,11.27
2022-11-10T20:05:32.926Z,9.00
2022-11-10T20:08:19.814Z,11.30
2022-11-10T20:11:14.074Z,5.80
2022-11-10T20:14:01.032Z,6.60
2022-11-10T20:16:48.202Z,6.70
2022-11-10T20:19:40.739Z,8.37
2022-11-10T20:22:28.119Z,7.27
2022-11-10T20:25:15.155Z,12.63
2022-11-10T20:28:06.036Z,7.90
2022-11-10T20:30:55.331Z,7.47
2022-11-10T20:33:42.352Z,7.30
2022-11-10T20:36:30.485Z,7.03
2022-11-10T20:39:17.781Z,8.03
2022-11-10T20:42:04.639Z,7.30
2022-11-10T20:44:51.541Z,7.43
2022-11-10T20:47:38.419Z,7.73
2022-11-10T20:50:25.495Z,8.10
2022-11-10T20:53:12.594Z,5.60
2022-11-10T20:56:01.917Z,7.90
2022-11-10T20:58:49.380Z,12.07
2022-11-10T21:01:37.779Z,7.83
2022-11-10T21:04:24.913Z,7.97
2022-11-10T21:07:11.854Z,9.07
2022-11-10T21:09:58.782Z,7.47
2022-11-10T21:12:51.798Z,7.83
2022-11-10T21:15:39.680Z,8.37
2022-11-10T21:18:37.682Z,8.13
2022-11-10T21:21:34.682Z,11.77
2022-11-10T21:24:22.712Z,9.37
2022-11-10T21:27:11.489Z,9.87
2022-11-10T21:29:58.717Z,7.47
2022-11-10T21:32:45.567Z,7.97
2022-11-10T21:35:38.007Z,11.07
2022-11-10T21:38:25.455Z,8.27
2022-11-10T21:41:12.757Z,6.90
2022-11-10T21:43:59.633Z,6.57
2022-11-10T21:46:46.837Z,9.63
2022-11-10T21:49:33.612Z,6.23
2022-11-10T21:52:20.408Z,6.13
2022-11-10T21:55:07.760Z,7.40
2022-11-10T21:57:58.125Z,8.63
2022-11-10T22:00:45.198Z,10.43
2022-11-10T22:03:32.358Z,5.93
2022-11-10T22:06:19.541Z,6.20
2022-11-10T22:09:06.469Z,6.47
2022-11-10T22:12:11.878Z,5.80
2022-11-10T22:15:16.996Z,10.70
2022-11-10T22:18:22.240Z,5.30
2022-11-10T22:21:09.220Z,9.27
2022-11-10T22:24:14.678Z,9.97
2022-11-10T22:27:02.668Z,6.37
2022-11-10T22:29:49.453Z,9.23
2022-11-10T22:32:36.250Z,7.77
2022-11-10T22:35:41.867Z,6.40
2022-11-10T22:38:35.538Z,8.03
2022-11-10T22:41:41.146Z,6.33
2022-11-10T22:44:28.162Z,7.17
2022-11-10T22:47:15.023Z,8.63
2022-11-10T22:50:01.807Z,5.50
2022-11-10T22:52:48.693Z,7.50
2022-11-10T22:55:35.461Z,6.27
2022-11-10T22:58:22.298Z,6.87
2022-11-10T23:01:11.125Z,7.53
2022-11-10T23:03:59.147Z,5.60
2022-11-10T23:06:46.537Z,7.63
2022-11-10T23:09:34.811Z,8.30
2022-11-10T23:12:22.946Z,6.83
2022-11-10T23:15:10.568Z,6.50
2022-11-10T23:18:02.455Z,9.70
2022-11-10T23:20:59.849Z,7.77
2022-11-10T23:23:47.306Z,7.30
2022-11-10T23:26:34.968Z,6.30
2022-11-10T23:29:21.850Z,6.43
2022-11-10T23:32:09.320Z,6.20
2022-11-10T23:34:56.094Z,8.63
2022-11-10T23:37:42.967Z,8.77
2022-11-10T23:40:29.775Z,5.70
2022-11-10T23:43:16.622Z,5.23
2022-11-10T23:46:07.670Z,6.87
2022-11-10T23:48:54.862Z,7.67
2022-11-10T23:51:41.889Z,8.77
2022-11-10T23:54:28.735Z,6.70
2022-11-10T23:57:15.739Z,6.37
